createdAt,value
2022-07-27T00:03:01.448Z,28.62
2022-07-27T00:06:04.947Z,28.70
2022-07-27T00:09:08.495Z,28.49
2022-07-27T00:12:12.186Z,28.19
2022-07-27T00:15:17.921Z,28.31
2022-07-27T00:18:22.919Z,28.34
2022-07-27T00:21:26.867Z,28.29
2022-07-27T00:24:30.281Z,27.92
2022-07-27T00:27:33.730Z,27.85
2022-07-27T00:30:37.031Z,28.14
2022-07-27T00:33:41.695Z,28.17
2022-07-27T00:36:45.007Z,28.41
2022-07-27T00:39:51.357Z,28.39
2022-07-27T00:46:25.219Z,28.55
2022-07-27T00:49:30.036Z,28.66
2022-07-27T00:52:33.570Z,28.88
2022-07-27T00:55:37.249Z,28.82
2022-07-27T00:58:40.842Z,28.70
2022-07-27T01:01:44.951Z,28.83
2022-07-27T01:04:49.680Z,28.74
2022-07-27T01:07:57.443Z,28.63
2022-07-27T01:11:01.041Z,27.91
2022-07-27T01:14:05.642Z,28.34
2022-07-27T01:17:08.990Z,28.46
2022-07-27T01:20:13.895Z,28.55
2022-07-27T01:23:18.654Z,28.10
2022-07-27T01:26:22.043Z,27.88
2022-07-27T01:29:25.380Z,27.90
2022-07-27T01:32:28.667Z,27.87
2022-07-27T01:35:32.275Z,27.54
2022-07-27T01:38:36.973Z,27.53
2022-07-27T01:41:40.203Z,27.99
2022-07-27T01:44:43.435Z,28.24
2022-07-27T01:47:46.774Z,28.07
2022-07-27T01:50:51.262Z,28.26
2022-07-27T01:53:56.098Z,28.20
2022-07-27T01:56:59.319Z,27.91
2022-07-27T02:00:02.672Z,27.51
2022-07-27T02:03:15.449Z,27.64
2022-07-27T02:06:18.746Z,27.64
2022-07-27T02:09:25.892Z,27.47
2022-07-27T02:12:37.046Z,27.46
2022-07-27T02:15:42.971Z,27.32
2022-07-27T02:22:22.209Z,26.95
2022-07-27T02:25:26.795Z,27.04
2022-07-27T02:28:29.947Z,26.91
2022-07-27T02:31:33.267Z,27.06
2022-07-27T02:34:36.452Z,27.00
2022-07-27T02:37:39.718Z,27.43
2022-07-27T02:40:44.408Z,27.27
2022-07-27T02:43:47.732Z,27.39
2022-07-27T02:46:51.127Z,27.23
2022-07-27T02:49:54.499Z,27.04
2022-07-27T02:52:57.700Z,27.39
2022-07-27T02:56:02.394Z,27.12
2022-07-27T02:59:05.687Z,26.92
2022-07-27T03:02:08.965Z,27.21
2022-07-27T03:05:12.760Z,27.57
2022-07-27T03:08:16.059Z,27.63
2022-07-27T03:11:20.770Z,27.77
2022-07-27T03:14:24.086Z,27.52
2022-07-27T03:17:27.389Z,27.29
2022-07-27T03:20:30.648Z,27.10
2022-07-27T03:23:33.907Z,27.17
2022-07-27T03:26:38.575Z,27.51
2022-07-27T03:29:41.836Z,27.18
2022-07-27T03:32:45.075Z,27.18
2022-07-27T03:35:48.269Z,27.41
2022-07-27T03:38:51.561Z,27.38
2022-07-27T03:41:56.085Z,27.72
2022-07-27T03:44:59.439Z,28.03
2022-07-27T03:48:02.794Z,28.45
2022-07-27T03:51:06.057Z,28.55
2022-07-27T03:54:09.365Z,28.90
2022-07-27T03:57:14.109Z,29.02
2022-07-27T04:00:17.873Z,29.26
2022-07-27T04:03:21.158Z,29.42
2022-07-27T04:06:25.712Z,29.54
2022-07-27T04:09:29.147Z,29.03
2022-07-27T04:12:37.455Z,29.24
2022-07-27T04:15:40.914Z,28.76
2022-07-27T04:18:44.351Z,28.35
2022-07-27T04:21:47.637Z,28.15
2022-07-27T04:24:50.896Z,28.73
2022-07-27T04:27:55.595Z,28.24
2022-07-27T04:30:58.928Z,28.44
2022-07-27T04:34:02.302Z,28.57
2022-07-27T04:37:06.127Z,29.17
2022-07-27T04:40:10.642Z,28.89
2022-07-27T04:43:15.333Z,28.91
2022-07-27T04:46:18.661Z,29.27
2022-07-27T04:49:22.160Z,29.52
2022-07-27T04:52:26.642Z,29.04
2022-07-27T04:55:30.145Z,29.32
2022-07-27T04:58:34.921Z,29.16
2022-07-27T05:01:38.625Z,28.89
2022-07-27T05:04:42.052Z,28.90
2022-07-27T05:07:45.400Z,29.16
2022-07-27T05:10:48.837Z,29.42
2022-07-27T05:13:53.599Z,29.91
2022-07-27T05:16:56.984Z,29.36
2022-07-27T05:20:01.389Z,29.41
2022-07-27T05:23:04.956Z,29.17
2022-07-27T05:26:08.251Z,29.22
2022-07-27T05:29:13.243Z,29.40
2022-07-27T05:32:17.290Z,29.44
2022-07-27T05:35:20.820Z,30.22
2022-07-27T05:38:24.238Z,30.76
2022-07-27T05:41:28.368Z,30.91
2022-07-27T05:44:33.223Z,31.01
2022-07-27T05:47:36.673Z,31.55
2022-07-27T05:50:39.989Z,31.74
2022-07-27T05:53:43.481Z,31.70
2022-07-27T05:56:47.236Z,31.94
2022-07-27T05:59:54.655Z,32.18
2022-07-27T06:02:58.048Z,32.35
2022-07-27T06:06:18.854Z,32.36
2022-07-27T06:09:22.200Z,32.46
2022-07-27T06:12:27.658Z,32.79
2022-07-27T06:15:35.560Z,32.55
2022-07-27T06:18:39.084Z,32.60
2022-07-27T06:21:42.419Z,32.66
2022-07-27T06:24:45.727Z,32.70
2022-07-27T06:27:49.350Z,32.54
2022-07-27T06:30:54.722Z,33.12
2022-07-27T06:33:58.341Z,33.29
2022-07-27T06:37:05.463Z,33.34
2022-07-27T06:40:09.667Z,32.99
2022-07-27T06:43:12.994Z,33.24
2022-07-27T06:46:17.736Z,33.70
2022-07-27T06:49:21.253Z,33.64
2022-07-27T06:52:24.723Z,33.61
2022-07-27T06:55:28.128Z,33.96
2022-07-27T06:58:32.696Z,34.22
2022-07-27T07:01:37.431Z,33.94
2022-07-27T07:04:40.766Z,34.25
2022-07-27T07:07:44.133Z,34.54
2022-07-27T07:10:47.524Z,34.82
2022-07-27T07:13:50.899Z,34.98
2022-07-27T07:16:55.750Z,35.15
2022-07-27T07:19:59.177Z,34.70
2022-07-27T07:23:02.836Z,34.94
2022-07-27T07:26:06.293Z,34.53
2022-07-27T07:29:10.003Z,34.58
2022-07-27T07:32:14.858Z,35.23
2022-07-27T07:35:18.322Z,35.45
2022-07-27T07:38:21.584Z,35.12
2022-07-27T07:41:24.978Z,35.07
2022-07-27T07:44:28.417Z,35.56
2022-07-27T07:47:33.183Z,35.82
2022-07-27T07:50:36.471Z,36.04
2022-07-27T07:53:41.633Z,36.31
2022-07-27T07:56:45.336Z,35.98
2022-07-27T07:59:48.706Z,35.85
2022-07-27T08:02:55.699Z,36.21
2022-07-27T08:05:59.102Z,36.53
2022-07-27T08:09:03.524Z,35.80
2022-07-27T08:12:07.889Z,36.24
2022-07-27T08:15:12.497Z,36.35
2022-07-27T08:18:17.271Z,36.14
2022-07-27T08:21:20.670Z,36.68
2022-07-27T08:24:24.072Z,36.45
2022-07-27T08:27:27.394Z,36.48
2022-07-27T08:30:32.367Z,36.63
2022-07-27T08:33:40.920Z,35.64
2022-07-27T08:36:44.448Z,36.82
2022-07-27T08:43:12.180Z,37.36
2022-07-27T08:46:19.341Z,36.83
2022-07-27T08:49:41.370Z,37.43
2022-07-27T08:52:46.329Z,36.83
2022-07-27T08:55:49.969Z,37.70
2022-07-27T08:58:53.373Z,37.87
2022-07-27T09:01:56.773Z,37.89
2022-07-27T09:05:01.898Z,38.02
2022-07-27T09:08:10.936Z,37.82
2022-07-27T09:11:16.298Z,37.41
2022-07-27T09:14:19.672Z,37.70
2022-07-27T09:21:10.418Z,38.00
2022-07-27T09:24:45.407Z,38.15
2022-07-27T09:27:39.759Z,38.73
2022-07-27T09:30:44.197Z,38.80
2022-07-27T09:33:49.364Z,38.87
2022-07-27T09:36:56.000Z,38.42
2022-07-27T09:40:12.765Z,38.83
2022-07-27T09:44:12.457Z,39.10
2022-07-27T09:46:44.011Z,38.76
2022-07-27T09:49:47.416Z,38.94
2022-07-27T09:52:52.238Z,39.37
2022-07-27T09:56:00.820Z,39.58
2022-07-27T09:59:05.474Z,39.10
2022-07-27T10:02:09.033Z,39.16
2022-07-27T10:05:14.080Z,39.45
2022-07-27T10:08:20.418Z,39.77
2022-07-27T10:11:25.055Z,39.11
2022-07-27T10:14:28.590Z,38.79
2022-07-27T10:17:32.219Z,38.73
2022-07-27T10:20:39.587Z,38.72
2022-07-27T10:23:55.528Z,39.03
2022-07-27T10:26:59.528Z,39.66
2022-07-27T10:30:06.714Z,39.78
2022-07-27T10:33:17.468Z,39.88
2022-07-27T10:36:51.961Z,39.68
2022-07-27T10:40:12.123Z,39.87
2022-07-27T10:43:20.492Z,40.15
2022-07-27T10:46:23.858Z,39.84
2022-07-27T10:49:30.198Z,40.10
2022-07-27T10:52:43.978Z,39.59
2022-07-27T10:55:49.771Z,40.00
2022-07-27T10:58:53.340Z,40.06
2022-07-27T11:01:58.601Z,39.35
2022-07-27T11:05:05.950Z,39.17
2022-07-27T11:08:36.593Z,39.56
2022-07-27T11:11:34.716Z,39.54
2022-07-27T11:14:46.696Z,39.50
2022-07-27T11:18:00.481Z,39.42
2022-07-27T11:21:25.919Z,39.45
2022-07-27T11:24:30.252Z,39.46
2022-07-27T11:27:46.492Z,39.64
2022-07-27T11:30:50.455Z,39.70
2022-07-27T11:33:56.458Z,39.98
2022-07-27T11:37:02.221Z,39.84
2022-07-27T11:40:28.177Z,40.26
2022-07-27T11:43:39.135Z,40.33
2022-07-27T11:46:44.533Z,40.33
2022-07-27T11:49:48.626Z,39.91
2022-07-27T11:53:01.659Z,39.87
2022-07-27T11:56:05.738Z,40.24
2022-07-27T11:59:13.974Z,39.72
2022-07-27T12:02:20.482Z,39.70
2022-07-27T12:05:24.173Z,39.72
2022-07-27T12:08:28.388Z,39.66
2022-07-27T12:11:45.454Z,39.58
2022-07-27T12:14:54.300Z,39.72
2022-07-27T12:17:58.239Z,39.77
2022-07-27T12:21:01.670Z,39.75
2022-07-27T12:24:05.662Z,39.69
2022-07-27T12:27:14.172Z,39.89
2022-07-27T12:30:20.192Z,40.04
2022-07-27T12:33:28.733Z,39.65
2022-07-27T12:36:32.735Z,39.93
2022-07-27T12:39:36.198Z,39.84
2022-07-27T12:42:39.567Z,39.34
2022-07-27T12:45:45.009Z,38.90
2022-07-27T12:48:48.491Z,38.76
2022-07-27T12:51:52.168Z,39.05
2022-07-27T12:54:55.761Z,39.46
2022-07-27T12:57:59.146Z,39.44
2022-07-27T13:01:04.019Z,39.78
2022-07-27T13:04:07.564Z,39.01
2022-07-27T13:07:10.872Z,39.17
2022-07-27T13:10:14.572Z,39.10
2022-07-27T13:13:18.020Z,39.32
2022-07-27T13:16:22.808Z,39.39
2022-07-27T13:19:26.228Z,39.83
2022-07-27T13:22:30.131Z,39.48
2022-07-27T13:25:33.759Z,39.17
2022-07-27T13:28:37.699Z,39.03
2022-07-27T13:31:49.006Z,38.89
2022-07-27T13:34:54.618Z,38.68
2022-07-27T13:37:58.007Z,38.72
2022-07-27T13:41:01.453Z,38.99
2022-07-27T13:44:05.376Z,39.22
2022-07-27T13:47:10.324Z,39.12
2022-07-27T13:50:19.358Z,39.34
2022-07-27T13:53:23.220Z,39.45
2022-07-27T13:56:30.078Z,39.47
2022-07-27T13:59:33.420Z,39.78
2022-07-27T14:02:38.246Z,39.88
2022-07-27T14:05:48.803Z,39.92
2022-07-27T14:08:53.201Z,39.20
2022-07-27T14:11:56.886Z,38.72
2022-07-27T14:15:00.300Z,39.12
2022-07-27T14:18:05.531Z,38.69
2022-07-27T14:21:10.345Z,38.70
2022-07-27T14:24:13.626Z,38.83
2022-07-27T14:27:17.096Z,39.05
2022-07-27T14:30:21.201Z,39.32
2022-07-27T14:33:29.852Z,39.27
2022-07-27T14:36:40.172Z,39.37
2022-07-27T14:39:43.505Z,39.24
2022-07-27T14:42:47.066Z,39.09
2022-07-27T14:45:50.700Z,38.75
2022-07-27T14:49:10.680Z,38.55
2022-07-27T14:52:14.560Z,38.65
2022-07-27T14:55:18.074Z,38.85
2022-07-27T14:58:21.406Z,39.10
2022-07-27T15:01:24.979Z,38.96
2022-07-27T15:04:30.299Z,38.80
2022-07-27T15:07:34.319Z,39.12
2022-07-27T15:10:37.648Z,39.06
2022-07-27T15:13:41.014Z,38.95
2022-07-27T15:16:44.660Z,38.63
2022-07-27T15:19:49.391Z,38.59
2022-07-27T15:22:52.816Z,38.85
2022-07-27T15:25:56.135Z,38.44
2022-07-27T15:28:59.426Z,38.55
2022-07-27T15:32:02.793Z,38.68
2022-07-27T15:35:08.294Z,38.54
2022-07-27T15:38:11.709Z,38.86
2022-07-27T15:41:15.570Z,38.68
2022-07-27T15:44:21.057Z,38.36
2022-07-27T15:47:24.386Z,38.39
2022-07-27T15:50:29.244Z,38.37
2022-07-27T15:53:32.561Z,37.97
2022-07-27T15:56:35.865Z,37.85
2022-07-27T15:59:39.189Z,37.69
2022-07-27T16:02:42.615Z,37.93
2022-07-27T16:05:48.979Z,38.03
2022-07-27T16:08:52.369Z,38.04
2022-07-27T16:11:55.639Z,37.62
2022-07-27T16:14:58.950Z,38.01
2022-07-27T16:18:02.419Z,37.87
2022-07-27T16:21:07.406Z,37.85
2022-07-27T16:24:11.212Z,37.71
2022-07-27T16:27:14.558Z,37.74
2022-07-27T16:30:20.577Z,37.71
2022-07-27T16:33:25.672Z,37.54
2022-07-27T16:36:38.211Z,37.37
2022-07-27T16:39:42.774Z,37.23
2022-07-27T16:42:46.157Z,37.30
2022-07-27T16:45:49.479Z,37.20
2022-07-27T16:48:52.826Z,37.07
2022-07-27T16:51:57.568Z,36.95
2022-07-27T16:55:00.853Z,36.86
2022-07-27T16:58:05.347Z,36.74
2022-07-27T17:01:10.002Z,36.70
2022-07-27T17:04:26.007Z,36.50
2022-07-27T17:07:30.740Z,36.58
2022-07-27T17:10:34.059Z,36.59
2022-07-27T17:13:38.666Z,36.53
2022-07-27T17:16:51.741Z,36.52
2022-07-27T17:19:55.571Z,36.31
2022-07-27T17:23:00.335Z,36.29
2022-07-27T17:26:05.491Z,36.16
2022-07-27T17:29:08.821Z,36.16
2022-07-27T17:32:12.406Z,36.15
2022-07-27T17:35:16.796Z,36.16
2022-07-27T17:38:22.322Z,36.11
2022-07-27T17:41:25.748Z,36.03
2022-07-27T17:44:29.126Z,35.96
2022-07-27T17:47:32.493Z,35.88
2022-07-27T17:50:36.304Z,35.84
2022-07-27T17:53:41.040Z,35.75
2022-07-27T17:56:44.423Z,35.75
2022-07-27T17:59:47.795Z,35.70
2022-07-27T18:02:51.123Z,35.66
2022-07-27T18:05:54.476Z,35.59
2022-07-27T18:08:59.317Z,35.43
2022-07-27T18:12:02.694Z,35.29
2022-07-27T18:15:24.123Z,35.41
2022-07-27T18:18:28.786Z,35.29
2022-07-27T18:21:32.259Z,35.18
2022-07-27T18:24:37.026Z,34.81
2022-07-27T18:27:41.028Z,34.85
2022-07-27T18:30:46.071Z,34.79
2022-07-27T18:33:50.959Z,34.46
2022-07-27T18:36:54.958Z,34.33
2022-07-27T18:39:59.735Z,34.06
2022-07-27T18:43:03.287Z,33.73
2022-07-27T18:46:07.211Z,33.51
2022-07-27T18:49:13.942Z,33.25
2022-07-27T18:52:17.829Z,33.06
2022-07-27T18:55:23.091Z,32.49
2022-07-27T18:58:27.796Z,32.10
2022-07-27T19:01:31.245Z,32.30
2022-07-27T19:04:35.002Z,32.00
2022-07-27T19:07:38.793Z,31.83
2022-07-27T19:10:45.814Z,31.95
2022-07-27T19:13:49.173Z,31.88
2022-07-27T19:16:52.867Z,31.64
2022-07-27T19:19:56.313Z,31.82
2022-07-27T19:23:00.883Z,31.93
2022-07-27T19:26:10.437Z,31.80
2022-07-27T19:29:17.222Z,31.22
2022-07-27T19:32:20.734Z,31.73
2022-07-27T19:35:24.037Z,31.51
2022-07-27T19:38:27.601Z,31.57
2022-07-27T19:41:32.393Z,31.19
2022-07-27T19:44:35.739Z,31.25
2022-07-27T19:47:39.093Z,31.61
2022-07-27T19:50:42.998Z,31.50
2022-07-27T19:53:50.242Z,31.59
2022-07-27T19:57:13.268Z,31.80
2022-07-27T20:00:37.960Z,31.63
2022-07-27T20:03:54.586Z,31.32
2022-07-27T20:06:58.440Z,31.68
2022-07-27T20:10:01.809Z,31.66
2022-07-27T20:13:06.937Z,31.68
2022-07-27T20:16:10.379Z,31.61
2022-07-27T20:19:13.993Z,31.86
2022-07-27T20:22:17.609Z,31.99
2022-07-27T20:25:21.080Z,31.57
2022-07-27T20:28:25.811Z,31.79
2022-07-27T20:31:29.599Z,31.94
2022-07-27T20:34:32.948Z,32.01
2022-07-27T20:37:36.568Z,32.06
2022-07-27T20:40:39.983Z,31.94
2022-07-27T20:43:44.753Z,32.00
2022-07-27T20:46:48.154Z,31.88
2022-07-27T20:49:51.554Z,31.77
2022-07-27T20:52:54.993Z,31.43
2022-07-27T20:55:58.250Z,31.55
2022-07-27T20:59:03.280Z,31.58
2022-07-27T21:02:11.318Z,31.88
2022-07-27T21:05:14.679Z,31.93
2022-07-27T21:08:17.945Z,32.03
2022-07-27T21:11:21.463Z,32.08
2022-07-27T21:14:26.207Z,31.98
2022-07-27T21:17:29.999Z,32.09
2022-07-27T21:20:33.331Z,32.07
2022-07-27T21:23:54.264Z,31.90
2022-07-27T21:27:00.903Z,31.77
2022-07-27T21:30:10.308Z,31.70
2022-07-27T21:33:13.781Z,31.60
2022-07-27T21:36:17.348Z,31.36
2022-07-27T21:39:21.718Z,31.43
2022-07-27T21:42:25.029Z,31.29
2022-07-27T21:45:29.737Z,30.96
2022-07-27T21:48:33.482Z,30.84
2022-07-27T21:51:36.997Z,30.63
2022-07-27T21:54:40.572Z,30.55
2022-07-27T21:57:43.968Z,30.50
2022-07-27T22:00:48.887Z,30.57
2022-07-27T22:03:52.446Z,30.50
2022-07-27T22:06:55.927Z,30.37
2022-07-27T22:09:59.229Z,30.14
2022-07-27T22:13:03.781Z,30.36
2022-07-27T22:16:09.286Z,30.58
2022-07-27T22:19:12.794Z,30.45
2022-07-27T22:22:16.085Z,30.25
2022-07-27T22:25:20.468Z,30.11
2022-07-27T22:28:26.032Z,30.27
2022-07-27T22:31:31.206Z,30.33
2022-07-27T22:34:35.055Z,30.52
2022-07-27T22:37:38.713Z,30.50
2022-07-27T22:40:42.192Z,30.35
2022-07-27T22:43:45.527Z,30.20
2022-07-27T22:46:50.584Z,30.12
2022-07-27T22:49:53.870Z,30.06
2022-07-27T22:52:57.810Z,29.91
2022-07-27T22:56:01.250Z,29.70
2022-07-27T22:59:04.585Z,29.84
2022-07-27T23:02:09.776Z,29.86
2022-07-27T23:05:13.303Z,29.67
2022-07-27T23:08:16.630Z,29.67
2022-07-27T23:11:19.969Z,29.84
2022-07-27T23:14:26.035Z,29.70
2022-07-27T23:17:31.502Z,29.68
2022-07-27T23:20:34.980Z,29.74
2022-07-27T23:23:39.947Z,29.75
2022-07-27T23:26:54.443Z,30.06
2022-07-27T23:29:57.852Z,30.06
2022-07-27T23:33:02.607Z,30.32
2022-07-27T23:36:06.891Z,30.19
2022-07-27T23:39:10.187Z,30.32
2022-07-27T23:42:13.792Z,30.20
2022-07-27T23:45:18.573Z,29.96
2022-07-27T23:48:25.030Z,29.73
2022-07-27T23:51:29.472Z,29.67
2022-07-27T23:54:33.053Z,29.65
2022-07-27T23:57:36.461Z,29.54
